createdAt,value
2022-08-30T00:01:13.609Z,23.53
2022-08-30T00:03:59.744Z,23.59
2022-08-30T00:06:43.811Z,23.38
2022-08-30T00:09:29.206Z,23.26
2022-08-30T00:12:13.195Z,23.25
2022-08-30T00:14:57.205Z,23.27
2022-08-30T00:17:41.567Z,23.40
2022-08-30T00:20:28.909Z,23.42
2022-08-30T00:23:13.629Z,23.45
2022-08-30T00:25:59.187Z,23.41
2022-08-30T00:28:43.101Z,23.44
2022-08-30T00:31:27.011Z,23.45
2022-08-30T00:34:10.887Z,23.34
2022-08-30T00:36:54.837Z,23.39
2022-08-30T00:39:38.895Z,23.34
2022-08-30T00:42:24.166Z,23.04
2022-08-30T00:45:15.819Z,22.60
2022-08-30T00:48:00.419Z,22.46
2022-08-30T00:50:48.139Z,22.58
2022-08-30T00:53:35.354Z,22.74
2022-08-30T00:56:20.351Z,22.61
2022-08-30T00:59:08.814Z,22.93
2022-08-30T01:01:53.902Z,22.76
2022-08-30T01:04:40.811Z,22.75
2022-08-30T01:07:25.327Z,22.90
2022-08-30T01:10:11.710Z,23.03
2022-08-30T01:12:55.730Z,23.24
2022-08-30T01:15:41.306Z,23.37
2022-08-30T01:18:26.307Z,23.38
2022-08-30T01:21:17.856Z,22.97
2022-08-30T01:24:04.582Z,22.46
2022-08-30T01:26:48.445Z,22.60
2022-08-30T01:29:32.459Z,22.52
2022-08-30T01:32:21.355Z,22.15
2022-08-30T01:35:05.537Z,22.08
2022-08-30T01:37:50.123Z,22.30
2022-08-30T01:40:37.353Z,22.33
2022-08-30T01:43:21.374Z,22.31
2022-08-30T01:46:05.426Z,22.42
2022-08-30T01:48:53.019Z,22.46
2022-08-30T01:51:39.270Z,22.47
2022-08-30T01:54:23.078Z,22.56
2022-08-30T01:57:15.385Z,22.64
2022-08-30T01:59:59.364Z,22.67
2022-08-30T02:02:43.914Z,22.59
2022-08-30T02:05:27.881Z,22.45
2022-08-30T02:08:11.736Z,22.53
2022-08-30T02:10:55.663Z,22.45
2022-08-30T02:13:43.175Z,22.06
2022-08-30T02:16:27.731Z,22.18
2022-08-30T02:19:12.868Z,22.22
2022-08-30T02:21:58.968Z,22.24
2022-08-30T02:24:42.804Z,22.01
2022-08-30T02:27:27.307Z,21.92
2022-08-30T02:30:14.177Z,21.76
2022-08-30T02:32:58.084Z,22.00
2022-08-30T02:35:42.441Z,22.08
2022-08-30T02:38:27.163Z,21.92
2022-08-30T02:41:11.053Z,21.91
2022-08-30T02:43:58.492Z,21.74
2022-08-30T02:46:43.789Z,21.87
2022-08-30T02:49:33.513Z,21.89
2022-08-30T02:52:17.775Z,21.88
2022-08-30T02:55:01.713Z,22.00
2022-08-30T02:57:50.267Z,21.99
2022-08-30T03:00:34.578Z,22.13
2022-08-30T03:03:20.241Z,22.05
2022-08-30T03:06:04.522Z,22.07
2022-08-30T03:08:48.346Z,22.04
2022-08-30T03:11:32.939Z,22.04
2022-08-30T03:14:16.808Z,21.95
2022-08-30T03:17:00.693Z,21.93
2022-08-30T03:19:46.622Z,21.70
2022-08-30T03:22:30.854Z,21.87
2022-08-30T03:25:16.129Z,21.85
2022-08-30T03:27:59.993Z,21.88
2022-08-30T03:30:43.835Z,21.87
2022-08-30T03:33:28.139Z,21.75
2022-08-30T03:36:13.640Z,21.97
2022-08-30T03:38:58.061Z,22.14
2022-08-30T03:41:41.806Z,22.19
2022-08-30T03:44:26.465Z,21.97
2022-08-30T03:47:11.497Z,21.76
2022-08-30T03:49:55.389Z,21.89
2022-08-30T03:52:40.652Z,21.71
2022-08-30T03:55:24.742Z,22.01
2022-08-30T03:58:08.603Z,22.17
2022-08-30T04:00:52.500Z,22.24
2022-08-30T04:03:37.345Z,22.39
2022-08-30T04:06:22.313Z,22.59
2022-08-30T04:09:07.825Z,22.62
2022-08-30T04:11:51.947Z,22.46
2022-08-30T04:14:35.907Z,22.38
2022-08-30T04:17:20.066Z,22.37
2022-08-30T04:20:04.501Z,22.59
2022-08-30T04:22:48.743Z,22.67
2022-08-30T04:25:34.504Z,22.70
2022-08-30T04:28:18.445Z,22.60
2022-08-30T04:31:03.430Z,22.49
2022-08-30T04:33:47.361Z,22.79
2022-08-30T04:36:31.300Z,22.82
2022-08-30T04:39:15.174Z,22.69
2022-08-30T04:42:01.056Z,22.79
2022-08-30T04:44:44.892Z,22.99
2022-08-30T04:47:28.951Z,23.20
2022-08-30T04:50:16.481Z,23.80
2022-08-30T04:53:00.831Z,24.04
2022-08-30T04:55:45.313Z,24.13
2022-08-30T04:58:30.570Z,24.24
2022-08-30T05:01:15.517Z,24.56
2022-08-30T05:04:04.295Z,24.44
2022-08-30T05:06:48.819Z,24.63
2022-08-30T05:09:32.582Z,25.01
2022-08-30T05:12:16.384Z,25.23
2022-08-30T05:15:01.595Z,25.28
2022-08-30T05:17:46.905Z,25.54
2022-08-30T05:20:30.865Z,25.80
2022-08-30T05:23:14.732Z,25.87
2022-08-30T05:25:58.638Z,25.87
2022-08-30T05:28:43.199Z,26.03
2022-08-30T05:31:31.173Z,25.99
2022-08-30T05:34:15.096Z,26.14
2022-08-30T05:36:59.666Z,26.35
2022-08-30T05:39:51.599Z,26.31
2022-08-30T05:42:36.711Z,25.86
2022-08-30T05:45:20.575Z,26.33
2022-08-30T05:48:06.379Z,26.21
2022-08-30T05:50:50.239Z,26.38
2022-08-30T05:53:34.359Z,26.48
2022-08-30T05:56:19.840Z,26.37
2022-08-30T05:59:05.395Z,26.45
2022-08-30T06:01:49.359Z,26.36
2022-08-30T06:04:34.586Z,26.33
2022-08-30T06:07:22.497Z,26.45
2022-08-30T06:10:07.846Z,26.55
2022-08-30T06:12:51.693Z,26.43
2022-08-30T06:15:35.635Z,26.70
2022-08-30T06:18:23.637Z,26.58
2022-08-30T06:21:18.485Z,26.68
2022-08-30T06:24:03.847Z,26.53
2022-08-30T06:26:49.158Z,26.80
2022-08-30T06:29:34.181Z,26.97
2022-08-30T06:32:18.124Z,27.25
2022-08-30T06:35:02.170Z,27.30
2022-08-30T06:37:48.166Z,27.38
2022-08-30T06:40:32.458Z,27.39
2022-08-30T06:43:16.316Z,27.69
2022-08-30T06:46:03.609Z,27.61
2022-08-30T06:48:48.479Z,27.88
2022-08-30T06:51:35.104Z,27.84
2022-08-30T06:54:20.405Z,27.98
2022-08-30T06:57:04.303Z,27.92
2022-08-30T06:59:48.135Z,27.91
2022-08-30T07:02:32.053Z,28.17
2022-08-30T07:05:18.899Z,28.32
2022-08-30T07:08:03.150Z,28.42
2022-08-30T07:10:48.976Z,28.12
2022-08-30T07:13:33.131Z,28.33
2022-08-30T07:16:17.028Z,28.56
2022-08-30T07:19:00.568Z,28.38
2022-08-30T07:21:45.189Z,28.65
2022-08-30T07:24:29.623Z,28.72
2022-08-30T07:27:14.904Z,28.88
2022-08-30T07:29:59.509Z,29.08
2022-08-30T07:32:43.328Z,29.36
2022-08-30T07:35:27.434Z,29.49
2022-08-30T07:38:14.299Z,29.43
2022-08-30T07:40:59.289Z,29.70
2022-08-30T07:43:45.321Z,29.76
2022-08-30T07:46:29.457Z,29.14
2022-08-30T07:49:13.672Z,29.68
2022-08-30T07:51:58.389Z,29.66
2022-08-30T07:54:43.150Z,29.67
2022-08-30T07:57:27.596Z,29.97
2022-08-30T08:00:13.691Z,30.02
2022-08-30T08:02:57.574Z,30.34
2022-08-30T08:05:43.123Z,30.37
2022-08-30T08:08:27.079Z,30.20
2022-08-30T08:11:16.278Z,30.09
2022-08-30T08:14:00.400Z,30.01
2022-08-30T08:16:46.769Z,30.68
2022-08-30T08:19:30.572Z,30.80
2022-08-30T08:22:20.891Z,30.95
2022-08-30T08:25:06.212Z,30.71
2022-08-30T08:27:51.935Z,30.32
2022-08-30T08:30:37.636Z,30.47
2022-08-30T08:33:23.875Z,30.53
2022-08-30T08:36:09.445Z,30.91
2022-08-30T08:38:53.990Z,30.66
2022-08-30T08:41:51.586Z,30.93
2022-08-30T08:44:54.421Z,31.18
2022-08-30T08:47:41.635Z,31.08
2022-08-30T08:50:27.467Z,31.37
2022-08-30T08:53:46.629Z,30.93
2022-08-30T08:56:30.980Z,31.01
2022-08-30T08:59:17.173Z,31.23
2022-08-30T09:02:03.452Z,31.61
2022-08-30T09:04:47.915Z,31.28
2022-08-30T09:07:39.527Z,31.38
2022-08-30T09:10:47.121Z,31.08
2022-08-30T09:13:29.637Z,31.68
2022-08-30T09:16:54.384Z,31.85
2022-08-30T09:19:44.339Z,32.06
2022-08-30T09:22:35.928Z,31.65
2022-08-30T09:25:25.652Z,31.82
2022-08-30T09:28:12.989Z,31.90
2022-08-30T09:31:04.854Z,31.65
2022-08-30T09:33:55.812Z,31.69
2022-08-30T09:36:43.897Z,32.26
2022-08-30T09:39:32.671Z,32.01
2022-08-30T09:42:21.315Z,32.40
2022-08-30T09:45:11.838Z,32.53
2022-08-30T09:47:55.813Z,32.50
2022-08-30T09:50:39.695Z,32.38
2022-08-30T09:53:32.401Z,31.69
2022-08-30T09:56:24.871Z,31.84
2022-08-30T09:59:22.496Z,31.80
2022-08-30T10:02:23.312Z,32.01
2022-08-30T10:05:15.740Z,32.51
2022-08-30T10:08:13.609Z,32.82
2022-08-30T10:11:02.162Z,33.20
2022-08-30T10:14:05.253Z,33.28
2022-08-30T10:16:59.535Z,32.95
2022-08-30T10:19:57.093Z,32.98
2022-08-30T10:22:46.723Z,33.19
2022-08-30T10:25:35.328Z,33.35
2022-08-30T10:28:24.598Z,33.29
2022-08-30T10:31:15.979Z,33.33
2022-08-30T10:34:04.511Z,33.51
2022-08-30T10:36:54.629Z,33.15
2022-08-30T10:39:44.591Z,32.95
2022-08-30T10:42:37.973Z,33.06
2022-08-30T10:45:25.261Z,32.95
2022-08-30T10:48:19.437Z,32.69
2022-08-30T10:51:10.897Z,32.53
2022-08-30T10:54:01.020Z,32.68
2022-08-30T10:56:46.914Z,32.20
2022-08-30T10:59:31.569Z,32.19
2022-08-30T11:02:32.106Z,32.49
2022-08-30T11:05:34.569Z,32.15
2022-08-30T11:08:38.427Z,32.42
2022-08-30T11:11:29.792Z,32.03
2022-08-30T11:14:18.675Z,31.69
2022-08-30T11:17:03.218Z,32.02
2022-08-30T11:19:47.547Z,31.90
2022-08-30T11:22:38.992Z,32.12
2022-08-30T11:25:53.329Z,32.18
2022-08-30T11:29:05.256Z,32.23
2022-08-30T11:31:50.507Z,32.61
2022-08-30T11:34:57.647Z,32.39
2022-08-30T11:37:44.768Z,32.42
2022-08-30T11:40:51.252Z,32.44
2022-08-30T11:43:55.934Z,32.35
2022-08-30T11:46:42.352Z,32.81
2022-08-30T11:49:46.394Z,32.67
2022-08-30T11:52:42.153Z,32.72
2022-08-30T11:55:45.264Z,32.75
2022-08-30T11:58:44.084Z,32.90
2022-08-30T12:01:51.134Z,32.74
2022-08-30T12:04:47.525Z,32.65
2022-08-30T12:07:59.487Z,32.97
2022-08-30T12:10:47.367Z,32.77
2022-08-30T12:13:58.645Z,32.75
2022-08-30T12:16:59.812Z,32.42
2022-08-30T12:19:50.321Z,32.76
2022-08-30T12:22:37.970Z,32.39
2022-08-30T12:25:27.883Z,32.29
2022-08-30T12:28:18.425Z,32.98
2022-08-30T12:31:11.043Z,32.87
2022-08-30T12:33:58.816Z,32.78
2022-08-30T12:36:53.753Z,32.68
2022-08-30T12:39:40.338Z,32.51
2022-08-30T12:42:29.319Z,32.67
2022-08-30T12:45:17.211Z,32.49
2022-08-30T12:48:04.523Z,31.92
2022-08-30T12:50:52.098Z,32.60
2022-08-30T12:53:41.843Z,32.77
2022-08-30T12:56:56.526Z,32.06
2022-08-30T12:59:54.210Z,31.86
2022-08-30T13:02:52.406Z,32.27
2022-08-30T13:05:46.816Z,32.69
2022-08-30T13:08:37.036Z,32.80
2022-08-30T13:11:29.661Z,32.33
2022-08-30T13:14:31.315Z,32.62
2022-08-30T13:17:24.557Z,32.12
2022-08-30T13:20:27.349Z,32.55
2022-08-30T13:23:12.203Z,32.10
2022-08-30T13:25:56.024Z,32.68
2022-08-30T13:28:51.607Z,32.63
2022-08-30T13:31:37.189Z,32.41
2022-08-30T13:34:22.649Z,32.08
2022-08-30T13:37:44.332Z,32.29
2022-08-30T13:40:16.022Z,32.52
2022-08-30T13:43:00.406Z,32.30
2022-08-30T13:45:44.303Z,32.18
2022-08-30T13:48:28.407Z,32.59
2022-08-30T13:51:12.684Z,32.42
2022-08-30T13:53:58.215Z,32.59
2022-08-30T13:56:42.313Z,32.24
2022-08-30T13:59:26.818Z,32.04
2022-08-30T14:02:11.605Z,32.35
2022-08-30T14:04:58.682Z,32.31
2022-08-30T14:07:46.996Z,31.90
2022-08-30T14:10:36.448Z,32.37
2022-08-30T14:13:29.125Z,32.04
2022-08-30T14:16:28.749Z,31.97
2022-08-30T14:19:14.118Z,31.70
2022-08-30T14:21:58.003Z,31.69
2022-08-30T14:24:41.846Z,32.03
2022-08-30T14:27:27.205Z,32.22
2022-08-30T14:30:12.234Z,32.04
2022-08-30T14:32:56.216Z,31.92
2022-08-30T14:35:40.134Z,32.05
2022-08-30T14:38:24.049Z,31.98
2022-08-30T14:41:08.533Z,31.74
2022-08-30T14:43:54.808Z,31.84
2022-08-30T14:46:38.868Z,32.11
2022-08-30T14:49:25.290Z,32.05
2022-08-30T14:52:10.553Z,32.01
2022-08-30T14:54:58.598Z,31.73
2022-08-30T14:57:44.130Z,32.01
2022-08-30T15:00:29.509Z,31.55
2022-08-30T15:03:13.534Z,32.21
2022-08-30T15:05:57.447Z,31.40
2022-08-30T15:08:41.576Z,31.76
2022-08-30T15:11:26.905Z,31.86
2022-08-30T15:14:16.210Z,32.02
2022-08-30T15:17:03.441Z,31.54
2022-08-30T15:19:47.292Z,31.36
2022-08-30T15:22:32.129Z,31.72
2022-08-30T15:25:18.528Z,31.25
2022-08-30T15:28:02.498Z,31.63
2022-08-30T15:30:47.293Z,31.60
2022-08-30T15:33:32.996Z,30.87
2022-08-30T15:36:18.456Z,30.63
2022-08-30T15:39:02.351Z,30.16
2022-08-30T15:41:54.686Z,29.93
2022-08-30T15:44:41.144Z,30.28
2022-08-30T15:47:25.367Z,30.49
2022-08-30T15:50:11.291Z,30.35
2022-08-30T15:52:55.231Z,30.00
2022-08-30T15:55:39.103Z,30.18
2022-08-30T15:58:23.176Z,30.14
2022-08-30T16:01:07.462Z,30.58
2022-08-30T16:03:51.455Z,29.35
2022-08-30T16:06:38.212Z,29.58
2022-08-30T16:09:22.844Z,29.69
2022-08-30T16:12:08.064Z,29.66
2022-08-30T16:14:53.953Z,29.63
2022-08-30T16:17:37.784Z,29.81
2022-08-30T16:20:23.283Z,29.87
2022-08-30T16:23:08.579Z,30.09
2022-08-30T16:25:52.400Z,30.14
2022-08-30T16:28:38.063Z,29.67
2022-08-30T16:31:23.967Z,29.49
2022-08-30T16:34:08.142Z,29.55
2022-08-30T16:36:51.935Z,29.33
2022-08-30T16:39:37.173Z,29.49
2022-08-30T16:42:21.499Z,29.46
2022-08-30T16:45:10.320Z,29.34
2022-08-30T16:47:54.989Z,29.23
2022-08-30T16:50:41.140Z,29.04
2022-08-30T16:53:26.260Z,28.81
2022-08-30T16:56:14.002Z,28.59
2022-08-30T16:59:02.002Z,28.65
2022-08-30T17:01:46.346Z,28.40
2022-08-30T17:04:32.296Z,28.34
2022-08-30T17:07:20.942Z,28.06
2022-08-30T17:10:06.968Z,27.72
2022-08-30T17:12:54.173Z,27.21
2022-08-30T17:15:38.204Z,26.70
2022-08-30T17:18:23.702Z,26.83
2022-08-30T17:21:07.636Z,26.52
2022-08-30T17:23:52.248Z,26.31
2022-08-30T17:26:39.921Z,26.13
2022-08-30T17:29:25.052Z,26.00
2022-08-30T17:32:09.735Z,25.87
2022-08-30T17:34:53.773Z,25.74
2022-08-30T17:37:37.641Z,25.42
2022-08-30T17:40:21.859Z,25.27
2022-08-30T17:43:05.910Z,25.63
2022-08-30T17:45:51.544Z,25.50
2022-08-30T17:48:36.010Z,25.39
2022-08-30T17:51:20.849Z,25.45
2022-08-30T17:54:06.196Z,25.57
2022-08-30T17:56:50.163Z,25.72
2022-08-30T17:59:36.164Z,25.79
2022-08-30T18:02:22.832Z,25.84
2022-08-30T18:05:12.309Z,25.22
2022-08-30T18:07:56.220Z,25.02
2022-08-30T18:10:40.232Z,25.06
2022-08-30T18:13:24.128Z,25.06
2022-08-30T18:16:08.827Z,25.16
2022-08-30T18:18:57.695Z,25.04
2022-08-30T18:21:41.673Z,25.13
2022-08-30T18:24:26.172Z,25.05
2022-08-30T18:27:10.558Z,25.12
2022-08-30T18:29:54.479Z,25.09
2022-08-30T18:32:39.257Z,24.93
2022-08-30T18:35:24.468Z,25.09
2022-08-30T18:38:09.087Z,25.29
2022-08-30T18:41:01.429Z,25.47
2022-08-30T18:43:45.924Z,25.59
2022-08-30T18:46:30.460Z,25.36
2022-08-30T18:49:16.488Z,25.21
2022-08-30T18:52:02.833Z,25.08
2022-08-30T18:54:53.042Z,25.01
2022-08-30T18:57:37.297Z,24.79
2022-08-30T19:00:21.410Z,24.92
2022-08-30T19:03:05.703Z,25.05
2022-08-30T19:05:49.610Z,24.91
2022-08-30T19:08:35.643Z,25.23
2022-08-30T19:11:19.516Z,25.41
2022-08-30T19:14:03.370Z,25.40
2022-08-30T19:16:47.205Z,25.65
2022-08-30T19:19:31.156Z,25.54
2022-08-30T19:22:15.542Z,25.56
2022-08-30T19:25:01.053Z,25.34
2022-08-30T19:27:47.917Z,24.99
2022-08-30T19:30:35.576Z,24.69
2022-08-30T19:33:19.935Z,24.57
2022-08-30T19:36:05.179Z,24.65
2022-08-30T19:38:49.433Z,24.35
2022-08-30T19:41:35.520Z,24.77
2022-08-30T19:44:19.778Z,24.75
2022-08-30T19:47:05.397Z,24.22
2022-08-30T19:49:49.535Z,24.47
2022-08-30T19:52:36.089Z,24.36
2022-08-30T19:55:23.819Z,24.65
2022-08-30T19:58:14.450Z,24.39
2022-08-30T20:01:00.996Z,24.58
2022-08-30T20:03:57.388Z,24.35
2022-08-30T20:06:43.105Z,24.33
2022-08-30T20:09:27.952Z,23.93
2022-08-30T20:12:12.052Z,23.71
2022-08-30T20:14:57.588Z,24.06
2022-08-30T20:18:02.516Z,23.75
2022-08-30T20:20:49.535Z,23.67
2022-08-30T20:23:35.581Z,23.95
2022-08-30T20:26:19.767Z,23.97
2022-08-30T20:29:04.510Z,24.05
2022-08-30T20:31:50.253Z,23.69
2022-08-30T20:34:34.463Z,23.93
2022-08-30T20:37:19.745Z,23.93
2022-08-30T20:40:05.907Z,24.01
2022-08-30T20:42:50.041Z,23.87
2022-08-30T20:45:35.154Z,23.85
2022-08-30T20:48:21.064Z,23.75
2022-08-30T20:51:08.380Z,23.85
2022-08-30T20:53:52.584Z,24.03
2022-08-30T20:56:37.620Z,24.06
2022-08-30T20:59:21.757Z,23.82
2022-08-30T21:02:06.644Z,23.67
2022-08-30T21:04:53.166Z,23.47
2022-08-30T21:07:37.646Z,23.66
2022-08-30T21:10:23.485Z,23.90
2022-08-30T21:13:08.193Z,24.07
2022-08-30T21:15:54.824Z,24.18
2022-08-30T21:18:39.467Z,24.21
2022-08-30T21:21:26.771Z,23.96
2022-08-30T21:24:11.057Z,23.93
2022-08-30T21:26:55.854Z,23.52
2022-08-30T21:29:39.785Z,23.43
2022-08-30T21:32:23.613Z,23.72
2022-08-30T21:35:26.450Z,23.76
2022-08-30T21:38:12.204Z,23.82
2022-08-30T21:40:56.292Z,23.87
2022-08-30T21:43:40.240Z,23.88
2022-08-30T21:46:24.123Z,23.80
2022-08-30T21:49:10.519Z,23.70
2022-08-30T21:51:55.466Z,23.37
2022-08-30T21:54:40.731Z,23.31
2022-08-30T21:57:24.886Z,23.27
2022-08-30T22:00:10.415Z,23.15
2022-08-30T22:02:54.627Z,23.11
2022-08-30T22:05:38.542Z,23.34
2022-08-30T22:08:22.455Z,23.36
2022-08-30T22:11:09.319Z,22.98
2022-08-30T22:13:54.623Z,22.67
2022-08-30T22:16:39.902Z,22.71
2022-08-30T22:19:23.899Z,22.46
2022-08-30T22:22:07.855Z,22.63
2022-08-30T22:24:51.601Z,22.74
2022-08-30T22:27:36.853Z,22.65
2022-08-30T22:30:20.894Z,22.83
2022-08-30T22:33:05.093Z,23.06
2022-08-30T22:35:48.959Z,23.03
2022-08-30T22:38:32.843Z,23.16
2022-08-30T22:41:18.675Z,22.99
2022-08-30T22:44:07.007Z,22.92
2022-08-30T22:46:50.850Z,23.09
2022-08-30T22:49:34.688Z,23.01
2022-08-30T22:52:18.547Z,22.64
2022-08-30T22:55:09.261Z,22.83
2022-08-30T22:57:54.525Z,22.89
2022-08-30T23:00:42.907Z,22.95
2022-08-30T23:03:38.540Z,23.21
2022-08-30T23:06:23.055Z,22.99
2022-08-30T23:09:08.181Z,22.94
2022-08-30T23:11:55.275Z,22.97
2022-08-30T23:14:39.182Z,22.99
2022-08-30T23:17:24.564Z,22.70
2022-08-30T23:20:09.685Z,22.69
2022-08-30T23:22:58.058Z,22.69
2022-08-30T23:25:58.894Z,22.52
2022-08-30T23:28:59.804Z,22.57
2022-08-30T23:32:01.307Z,22.60
2022-08-30T23:35:04.519Z,22.66
2022-08-30T23:38:05.946Z,22.57
2022-08-30T23:41:07.286Z,22.70
2022-08-30T23:44:08.733Z,22.93
2022-08-30T23:47:10.263Z,23.08
2022-08-30T23:50:13.648Z,23.21
2022-08-30T23:53:14.645Z,23.19
2022-08-30T23:56:16.072Z,23.22
2022-08-30T23:59:17.426Z,22.90
